• Join FlightAware (Why Join?)
  • Login
  • US Flag 
04:14AM EDT


 

Airport Tracker/Info


-or-


 

Live Flight TrackerFlight Track Log ✈ SKW5641 ✈ 29-Apr-2013 ✈ KDEN - KSLC

Flight Track Log - Related Links

Times and Time Zones

All times are in EDT time to prevent confusion due to time zone crossing. See the SKW5641 flight status page for this flight to view local times or setup timezone preferences in your user account.

Time Position Orientation Groundspeed Altitude Reporting Facility
EDT Latitude Longitude Course Direction KTS MPH feet Rate Location/Type
05:27PM 39.8500 -104.7667 293° West 189 217 6,800  Level Denver TRACON
05:28PM 39.8667 -104.8167 293° West 217 250 8,900 1,800 Climbing Denver TRACON
05:29PM 39.9000 -104.9000 298° West 245 282 10,400 1,320 Climbing Denver TRACON
05:30PM 39.9500 -104.9833 308° West 279 321 11,700 1,560 Climbing Denver TRACON
05:31PM 39.9500 -105.0833 270° West 284 327 13,400 1,920 Climbing Denver TRACON
05:32PM 39.9667 -105.1833 282° West 287 330 15,600 2,040 Climbing Denver TRACON
05:33PM 39.9800 -105.2953 279° West 292 336 17,800 1,980 Climbing Denver Center
05:34PM 39.9819 -105.4119 271° West 299 344 19,800 1,620 Climbing Denver Center
05:35PM 39.9794 -105.5242 268° West 308 354 21,200 1,080 Climbing Denver Center
05:36PM 39.9772 -105.6419 269° West 330 380 22,100 960 Climbing Denver Center
05:37PM 39.9728 -105.7739 268° West 341 392 23,200 960 Climbing Denver Center
05:38PM 39.9719 -105.8900 270° West 335 386 24,100 720 Climbing Denver Center
05:39PM 39.9800 -106.0206 275° West 356 410 24,700 540 Climbing Denver Center
05:40PM 39.9878 -106.1569 274° West 372 428 25,300 600 Climbing Denver Center
05:41PM 39.9978 -106.3211 275° West 386 444 26,000 600 Climbing Denver Center
05:42PM 40.0047 -106.4642 274° West 394 453 26,600 540 Climbing Denver Center
05:43PM 40.0122 -106.5978 274° West 394 453 27,200 480 Climbing Denver Center
05:44PM 40.0186 -106.7119 274° West 396 456 27,700 540 Climbing Denver Center
05:45PM 40.0281 -106.8936 274° West 394 453 28,400 660 Climbing Denver Center
05:46PM 40.0367 -107.0542 274° West 397 457 29,100 600 Climbing Denver Center
05:47PM 40.0433 -107.1911 274° West 397 457 29,700 600 Climbing Denver Center
05:48PM 40.0511 -107.3500 274° West 394 453 30,400 540 Climbing Denver Center
05:49PM 40.0572 -107.4861 273° West 393 452 30,900 480 Climbing Denver Center
05:50PM 40.0650 -107.6439 274° West 392 451 31,500 480 Climbing Denver Center
05:51PM 40.0700 -107.7789 273° West 392 451 32,000 180 Climbing Denver Center
05:52PM 40.0783 -107.9611 273° West 396 456 32,000  Level Denver Center
05:54PM 40.0844 -108.1006 273° West 403 464 32,000  Level Denver Center
05:55PM 40.0911 -108.2667 273° West 412 474 32,000  Level Denver Center
05:56PM 40.0969 -108.4097 273° West 416 479 32,000  Level Denver Center
05:57PM 40.1006 -108.5297 272° West 418 481 32,000  Level Denver Center
05:58PM 40.1078 -108.7219 273° West 418 481 32,000  Level Denver Center
05:59PM 40.1122 -108.8433 273° West 420 483 32,000  Level Denver Center
06:00PM 40.1181 -109.0361 272° West 419 482 32,000  Level Salt Lake Center
06:01PM 40.1236 -109.1792 273° West 416 479 32,000 -180 Level Salt Lake Center
06:02PM 40.1275 -109.3231 272° West 416 479 31,700 -720 Descending Salt Lake Center
06:03PM 40.1322 -109.4981 272° West 432 497 30,600 -840 Descending Salt Lake Center
06:04PM 40.1369 -109.6503 272° West 439 505 30,000 -300 Descending Salt Lake Center
06:05PM 40.1422 -109.8219 272° West 425 489 30,000  Level Salt Lake Center
06:06PM 40.1456 -109.9708 272° West 427 491 30,000  Level Salt Lake Center
06:07PM 40.1494 -110.1450 272° West 429 494 30,000  Level Salt Lake Center
06:08PM 40.1492 -110.2925 270° West 426 490 30,000  Level Salt Lake Center
06:09PM 40.1472 -110.4378 269° West 422 486 30,000 -420 Level Salt Lake Center
06:10PM 40.1464 -110.5919 270° West 390 449 29,200 -1,260 Descending Salt Lake Center
06:11PM 40.1450 -110.7133 269° West 362 417 27,500 -1,800 Descending Salt Lake Center
06:12PM 40.1433 -110.8475 269° West 337 388 25,600 -1,740 Descending Salt Lake Center
06:13PM 40.1414 -110.9497 269° West 320 368 24,000 -1,620 Descending Salt Lake Center
06:14PM 40.1411 -111.0611 270° West 310 357 22,300 -1,860 Descending Salt Lake Center
06:15PM 40.0981 -111.1717 243° Southwest 319 367 20,300 -1,800 Descending Salt Lake Center
06:16PM 40.0344 -111.2261 213° Southwest 322 371 18,700 -1,800 Descending Salt Lake Center
06:17PM 40.0564 -111.3461 283° West 323 372 16,700 -1,320 Descending Salt Lake Center
06:18PM 40.1000 -111.4633 296° West 349 402 16,000 -420 Descending Salt Lake Center
06:19PM 40.1319 -111.5667 292° West 365 420 16,000  Level Salt Lake Center
06:19PM 40.1458 -111.5847 315° West 369 425 16,000  Level Salt Lake Center
06:20PM 40.2019 -111.7225 298° West 379 436 16,000 -360 Level Salt Lake Center
06:21PM 40.2756 -111.8211 314° West 381 438 15,300 -1,440 Descending Salt Lake Center
06:22PM 40.3636 -111.8842 331° Northwest 357 411 13,100 -2,220 Descending Salt Lake Center
06:23PM 40.4497 -111.9281 339° North 315 362 10,900 -2,040 Descending Salt Lake Center
06:24PM 40.5339 -111.9392 354° North 311 358 9,100 -1,500 Descending Salt Lake Center
06:25PM 40.6197 -111.9494 355° North 286 329 7,700 -1,020 Descending Salt Lake Center
06:26PM 40.6883 -111.9536 357° North 242 278 7,000 -1,320 Descending Salt Lake Center
06:27PM 40.7322 -111.9619 352° North 159 183 5,100 -1,320 Descending Salt Lake Center
06:28PM 40.7739 -111.9622 360° North 150 173 4,300 -840 Descending Salt Lake Center
06:30PM 40.7833 -111.9667 North  Level FlightAware Approximate